Time;durP1;ratioP1;P1;durP2;ratioP2;P2;SDS_P1;SDS_P2;PMS_P1;PMS_P2;Temp;Humidity;BMP_temperature;BMP_pressure;BME280_temperature;BME280_humidity;BME280_pressure;Samples;Min_cycle;Max_cycle;Signal;HPM_P1;HPM_P2
2023/10/08 00:00:50;;;;;;;18.27;14.40;;;;;;;29.59;73.06;101095.13;5040513;28;65805;-39
2023/10/08 00:03:20;;;;;;;15.57;13.70;;;;;;;29.60;73.77;101102.19;5036046;28;69531;-38
2023/10/08 00:05:51;;;;;;;15.25;13.15;;;;;;;29.63;72.07;101104.50;5038900;28;66431;-38
2023/10/08 00:08:22;;;;;;;15.45;13.15;;;;;;;29.40;73.35;101075.97;5037465;28;70261;-38
2023/10/08 00:10:56;;;;;;;13.68;12.50;;;;;;;29.62;72.47;101108.22;5037226;28;66526;-38
2023/10/08 00:13:26;;;;;;;16.42;13.77;;;;;;;29.66;74.42;101109.50;5037533;28;70488;-38
2023/10/08 00:15:57;;;;;;;15.02;13.48;;;;;;;29.61;74.61;101104.69;5039343;28;66021;-38
2023/10/08 00:18:28;;;;;;;15.73;13.90;;;;;;;29.64;72.97;101108.84;5035384;28;70643;-40
2023/10/08 00:21:15;;;;;;;29.15;14.60;;;;;;;29.61;75.44;101112.81;5039546;28;65259;-44
2023/10/08 00:23:52;;;;;;;14.40;12.98;;;;;;;29.68;73.91;101118.25;5034582;28;70109;-38
2023/10/08 00:26:31;;;;;;;18.20;13.82;;;;;;;29.70;73.58;101128.81;5037216;28;65677;-39
2023/10/08 00:29:15;;;;;;;17.15;13.93;;;;;;;29.55;75.01;101104.66;5035379;28;69773;-39
2023/10/08 00:31:47;;;;;;;16.38;12.77;;;;;;;29.66;74.21;101120.31;5030117;28;66201;-38
2023/10/08 00:34:22;;;;;;;17.08;14.43;;;;;;;29.72;75.36;101133.00;5039884;28;69861;-39
2023/10/08 00:36:52;;;;;;;17.30;14.88;;;;;;;29.71;74.88;101131.34;5038419;28;66039;-38
2023/10/08 00:39:22;;;;;;;15.02;13.65;;;;;;;29.77;73.45;101130.50;5038577;28;70301;-38
2023/10/08 00:41:59;;;;;;;22.65;14.90;;;;;;;29.69;74.15;101135.28;5036288;28;65855;-37
2023/10/08 00:44:30;;;;;;;16.35;14.32;;;;;;;29.64;72.42;101152.13;5036684;28;70164;-37
2023/10/08 00:47:04;;;;;;;19.65;15.10;;;;;;;29.60;70.56;101140.03;5037547;28;66361;-39
2023/10/08 00:50:20;;;;;;;15.95;14.32;;;;;;;29.53;71.03;101133.75;5038480;28;70137;-38
2023/10/08 00:52:48;;;;;;;18.17;14.13;;;;;;;29.64;72.51;101157.53;5034665;28;66102;-37
2023/10/08 00:55:28;;;;;;;16.73;15.02;;;;;;;29.74;71.53;101157.13;5041220;28;69791;-38
2023/10/08 00:58:08;;;;;;;25.05;14.65;;;;;;;29.72;72.31;101148.38;5035164;28;66489;-38
2023/10/08 01:00:41;;;;;;;17.77;14.77;;;;;;;29.76;73.10;101155.91;5038334;28;69945;-39
2023/10/08 01:03:19;;;;;;;20.65;13.65;;;;;;;29.82;72.40;101154.22;5052745;28;66345;-37
2023/10/08 01:05:50;;;;;;;24.30;15.32;;;;;;;29.90;72.06;101156.75;5038644;28;70374;-37
2023/10/08 01:08:46;;;;;;;19.25;15.98;;;;;;;29.77;72.62;101140.50;5037974;28;66024;-37
2023/10/08 01:12:08;;;;;;;20.80;16.63;;;;;;;29.47;73.72;101092.19;5036980;28;69265;-38
2023/10/08 01:14:24;;;;;;;19.25;16.48;;;;;;;29.87;73.99;101162.56;5032943;28;66741;-38
2023/10/08 01:16:55;;;;;;;28.60;16.95;;;;;;;29.84;73.59;101153.00;5037724;28;70274;-38
2023/10/08 01:19:27;;;;;;;20.60;18.35;;;;;;;29.91;72.12;101152.97;5034246;28;66892;-39
2023/10/08 01:21:59;;;;;;;22.83;17.48;;;;;;;29.80;73.16;101146.31;5039007;28;70729;-37
2023/10/08 01:24:34;;;;;;;20.55;17.48;;;;;;;29.89;74.35;101165.03;5020871;28;66273;-38
2023/10/08 01:27:09;;;;;;;21.75;19.33;;;;;;;30.01;72.36;101160.69;5036870;28;70266;-38
2023/10/08 01:29:43;;;;;;;29.10;20.00;;;;;;;29.94;73.39;101151.75;5038032;28;67107;-40
2023/10/08 01:32:16;;;;;;;19.42;17.38;;;;;;;30.00;72.94;101156.31;5036772;28;69433;-38
2023/10/08 01:34:46;;;;;;;19.38;17.38;;;;;;;30.10;72.31;101166.72;5035644;28;66279;-39
2023/10/08 01:37:18;;;;;;;21.27;17.15;;;;;;;30.08;73.83;101158.81;5041081;28;69279;-38
2023/10/08 01:39:50;;;;;;;19.90;16.50;;;;;;;30.18;71.83;101159.22;5034876;28;66011;-39
2023/10/08 01:42:23;;;;;;;15.10;13.57;;;;;;;30.25;71.34;101160.06;5036172;28;69215;-39
2023/10/08 01:44:55;;;;;;;13.82;12.63;;;;;;;30.27;71.10;101151.75;5037941;28;65321;-37
2023/10/08 01:47:26;;;;;;;13.80;12.75;;;;;;;30.35;71.12;101156.13;5037859;28;70256;-37
2023/10/08 01:50:05;;;;;;;14.70;13.40;;;;;;;30.37;70.81;101149.47;5038531;28;66009;-48
2023/10/08 01:52:35;;;;;;;13.98;12.75;;;;;;;30.42;70.31;101149.66;5041772;28;70620;-39
2023/10/08 01:55:10;;;;;;;14.65;13.20;;;;;;;30.54;70.31;101163.38;5039432;28;66831;-39
2023/10/08 01:57:43;;;;;;;14.20;12.95;;;;;;;30.56;70.36;101155.88;5039698;28;70251;-38
2023/10/08 02:00:20;;;;;;;13.75;12.63;;;;;;;30.50;70.17;101141.28;5025359;28;66771;-37
2023/10/08 02:02:51;;;;;;;13.40;12.40;;;;;;;30.55;70.04;101137.97;5039349;28;70123;-39
2023/10/08 02:05:22;;;;;;;14.63;13.27;;;;;;;30.60;69.71;101146.28;5033601;28;65867;-40
2023/10/08 02:07:54;;;;;;;14.60;13.32;;;;;;;30.67;69.67;101152.53;5043029;28;70307;-39
2023/10/08 02:10:25;;;;;;;13.93;12.73;;;;;;;30.66;69.70;101150.84;5041160;28;65519;-38
2023/10/08 02:12:56;;;;;;;13.65;12.55;;;;;;;30.67;69.54;101149.81;5041844;28;70028;-38
2023/10/08 02:15:26;;;;;;;13.55;12.45;;;;;;;30.72;69.79;101150.00;5037886;28;65864;-38
2023/10/08 02:17:58;;;;;;;14.45;13.25;;;;;;;30.78;69.53;101152.91;5037900;28;70539;-39
2023/10/08 02:20:29;;;;;;;13.85;12.65;;;;;;;30.76;69.21;101144.16;5038745;28;65710;-38
2023/10/08 02:22:59;;;;;;;14.23;13.05;;;;;;;30.80;69.44;101156.28;5036729;28;70367;-38
2023/10/08 02:25:34;;;;;;;13.88;12.55;;;;;;;30.59;69.36;101112.16;5039953;28;43418;-38
2023/10/08 02:28:08;;;;;;;13.95;12.85;;;;;;;30.87;69.63;101146.22;5037856;28;69659;-37
2023/10/08 02:30:39;;;;;;;15.13;13.57;;;;;;;30.91;69.38;101142.88;5039230;28;65456;-37
2023/10/08 02:33:16;;;;;;;14.15;12.95;;;;;;;30.85;69.35;101130.19;5036102;28;70304;-37
2023/10/08 02:35:47;;;;;;;14.02;12.90;;;;;;;30.96;69.23;101139.53;5036769;28;65631;-37
2023/10/08 02:38:21;;;;;;;14.48;13.15;;;;;;;30.97;69.47;101130.34;5031436;28;70633;-37
2023/10/08 02:40:54;;;;;;;;;;;;;;;30.65;70.54;101141.06;5036743;28;65723;-37
2023/10/08 02:43:24;;;;;;;14.93;13.02;;;;;;;30.99;69.09;101128.28;5039018;28;69571;-37
2023/10/08 02:45:55;;;;;;;15.13;13.80;;;;;;;31.02;69.05;101122.41;5036601;28;65800;-37
2023/10/08 02:48:27;;;;;;;14.70;13.37;;;;;;;31.05;69.62;101124.69;5037860;28;69799;-38
2023/10/08 02:51:06;;;;;;;15.43;13.93;;;;;;;31.01;69.21;101115.34;5055946;28;66142;-38
2023/10/08 02:53:37;;;;;;;15.18;13.95;;;;;;;31.10;69.34;101118.63;5035574;28;69767;-38
2023/10/08 02:56:12;;;;;;;16.17;14.68;;;;;;;31.04;70.08;101109.50;5039833;28;65596;-37
2023/10/08 02:58:47;;;;;;;23.83;16.27;;;;;;;30.87;72.14;101108.31;5036887;28;70016;-40
2023/10/08 03:01:18;;;;;;;22.05;16.30;;;;;;;30.80;73.02;101104.81;5035921;28;65747;-40
2023/10/08 03:03:48;;;;;;;18.08;15.38;;;;;;;30.72;73.67;101098.53;5026237;28;69569;-39
2023/10/08 03:06:22;;;;;;;21.70;16.38;;;;;;;30.70;73.77;101097.94;5036598;28;66751;-39
2023/10/08 03:08:52;;;;;;;24.00;18.52;;;;;;;30.83;73.56;101096.25;5040345;28;70166;-37
2023/10/08 03:11:26;;;;;;;24.15;16.23;;;;;;;30.76;73.92;101089.97;5041317;28;65914;-38
2023/10/08 03:13:57;;;;;;;18.98;12.80;;;;;;;30.89;72.07;101103.50;5041434;28;69991;-39
2023/10/08 03:16:33;;;;;;;14.32;12.85;;;;;;;30.91;71.38;101093.31;5038263;28;66724;-39
2023/10/08 03:19:05;;;;;;;16.02;12.90;;;;;;;30.96;71.71;101090.78;5041489;28;69704;-37
2023/10/08 03:24:12;;;;;;;17.40;15.75;;;;;;;31.07;72.16;101084.69;5040718;28;69607;-38
2023/10/08 03:26:45;;;;;;;17.10;15.50;;;;;;;30.99;71.93;101068.66;5036523;28;66211;-40
2023/10/08 03:29:18;;;;;;;18.70;14.88;;;;;;;31.14;71.61;101087.34;5045810;28;70438;-40
2023/10/08 03:34:27;;;;;;;20.23;16.05;;;;;;;31.24;71.67;101081.47;5034804;28;70258;-38
2023/10/08 03:37:05;;;;;;;17.98;15.25;;;;;;;31.25;71.18;101077.69;5037819;28;65429;-36
2023/10/08 03:39:50;;;;;;;16.13;14.48;;;;;;;31.21;71.72;101081.91;5035644;27;69286;-38
2023/10/08 03:42:23;;;;;;;15.95;13.45;;;;;;;31.25;72.12;101077.69;5035645;28;65457;-37
2023/10/08 03:44:56;;;;;;;25.00;14.63;;;;;;;31.13;72.44;101064.84;5036053;28;69435;-37
2023/10/08 03:47:26;;;;;;;20.52;13.95;;;;;;;31.29;71.77;101078.94;5047342;28;65997;-37
2023/10/08 03:50:03;;;;;;;16.08;11.27;;;;;;;31.31;70.56;101071.38;5039020;28;70411;-38
2023/10/08 03:52:42;;;;;;;10.35;9.50;;;;;;;31.07;69.94;101021.53;5037744;28;66386;-37
2023/10/08 03:55:21;;;;;;;10.00;9.15;;;;;;;31.46;69.60;101073.84;5038626;28;70342;-37
2023/10/08 03:57:56;;;;;;;10.05;9.05;;;;;;;31.48;69.87;101067.16;5038702;28;67595;-38
2023/10/08 04:00:31;;;;;;;11.45;10.45;;;;;;;31.50;70.17;101067.72;5037835;28;69261;-37
2023/10/08 04:03:07;;;;;;;10.98;9.90;;;;;;;31.49;70.59;101057.97;5036390;28;66282;-38
2023/10/08 04:05:59;;;;;;;9.77;8.88;;;;;;;31.57;69.37;101071.25;5037738;28;70381;-38
2023/10/08 04:08:58;;;;;;;8.93;7.82;;;;;;;31.65;69.12;101061.16;5034079;28;66592;-38
2023/10/08 04:11:35;;;;;;;7.38;6.95;;;;;;;31.72;68.95;101057.34;5036494;28;69481;-38
2023/10/08 04:14:06;;;;;;;14.20;9.38;;;;;;;31.77;68.80;101053.97;5035250;28;66427;-40
2023/10/08 04:16:37;;;;;;;14.50;8.70;;;;;;;31.78;68.79;101044.78;5036914;28;69642;-41
2023/10/08 04:19:08;;;;;;;18.92;8.20;;;;;;;31.71;69.27;101033.16;5035156;28;66438;-40
2023/10/08 04:21:42;;;;;;;11.88;8.13;;;;;;;31.80;69.07;101037.25;5037039;28;70087;-40
2023/10/08 04:24:14;;;;;;;10.38;7.03;;;;;;;31.55;68.36;100996.59;5035653;28;66951;-41
2023/10/08 04:26:45;;;;;;;;;;;;;;;31.58;68.44;101020.53;5034967;28;69811;-41
2023/10/08 04:29:16;;;;;;;6.72;6.22;;;;;;;31.85;68.27;101018.44;5036815;28;66968;-40
2023/10/08 04:31:54;;;;;;;5.63;5.22;;;;;;;31.82;67.74;101018.88;5037668;28;69620;-40
2023/10/08 04:34:26;;;;;;;7.35;5.75;;;;;;;31.74;68.60;100994.75;5034432;28;65892;-39
2023/10/08 04:37:00;;;;;;;8.63;5.82;;;;;;;31.79;69.82;100997.63;5038248;28;69590;-39
2023/10/08 04:39:34;;;;;;;8.65;6.20;;;;;;;31.76;70.70;100992.63;5054238;28;66322;-39
2023/10/08 04:42:12;;;;;;;5.90;5.50;;;;;;;31.74;70.80;100992.88;5039270;28;70002;-39
2023/10/08 04:44:42;;;;;;;9.43;5.75;;;;;;;31.67;71.25;100988.53;5036848;28;66397;-39
2023/10/08 04:47:31;;;;;;;5.53;4.95;;;;;;;31.57;69.41;100979.06;5038053;28;70106;-37
2023/10/08 04:50:06;;;;;;;4.32;4.03;;;;;;;31.40;68.15;100972.53;5038346;28;65945;-38
2023/10/08 04:52:45;;;;;;;3.90;3.65;;;;;;;31.34;67.17;100985.06;5039507;28;69923;-37
2023/10/08 04:55:20;;;;;;;3.92;3.63;;;;;;;31.01;65.76;100930.28;5040358;28;66123;-38
2023/10/08 04:57:52;;;;;;;5.18;2.80;;;;;;;31.10;64.54;100967.72;5040406;28;70516;-37
2023/10/08 05:00:42;;;;;;;6.10;2.50;;;;;;;31.03;63.43;100966.13;5036638;28;65805;-37
2023/10/08 05:03:16;;;;;;;3.55;2.05;;;;;;;30.95;62.92;100953.66;5028907;28;70708;-37
2023/10/08 05:06:07;;;;;;;2.42;2.22;;;;;;;30.93;63.89;100951.19;5039922;28;66404;-37
2023/10/08 05:08:58;;;;;;;1.63;1.53;;;;;;;30.85;62.18;100954.16;5039948;28;70776;-37
2023/10/08 05:14:55;;;;;;;1.95;1.38;;;;;;;30.75;59.47;100942.09;5039292;28;70184;-38
2023/10/08 05:30:54;;;;;;;3.88;1.23;;;;;;;30.63;59.91;100912.19;5037448;28;69568;-38
2023/10/08 05:33:25;;;;;;;1.60;1.05;;;;;;;30.56;57.71;100904.09;5038391;28;66102;-37
2023/10/08 05:36:18;;;;;;;3.90;0.95;;;;;;;30.55;57.66;100899.75;5036864;28;70054;-38
2023/10/08 05:39:00;;;;;;;1.77;1.10;;;;;;;30.40;58.03;100869.44;5036314;28;66438;-38
2023/10/08 05:41:39;;;;;;;4.10;1.10;;;;;;;30.49;57.88;100878.97;5035305;28;68864;-39
2023/10/08 05:44:46;;;;;;;2.05;1.02;;;;;;;30.52;58.15;100861.44;5039841;28;67034;-39
2023/10/08 05:47:12;;;;;;;5.90;0.98;;;;;;;30.60;57.97;100885.56;5041191;28;70429;-39
2023/10/08 05:49:54;;;;;;;3.00;1.00;;;;;;;30.53;56.97;100866.63;5038379;28;66059;-37
2023/10/08 05:52:50;;;;;;;3.88;0.93;;;;;;;30.60;56.80;100880.97;5040810;28;70580;-40
2023/10/08 05:55:26;;;;;;;2.05;1.83;;;;;;;30.65;59.91;100875.72;5039817;28;65759;-39
2023/10/08 06:01:26;;;;;;;9.82;2.67;;;;;;;30.72;63.10;100860.25;5049375;28;66229;-37
2023/10/08 06:04:20;;;;;;;4.60;2.65;;;;;;;30.68;62.38;100850.91;5035825;28;70078;-39
2023/10/08 06:07:12;;;;;;;5.50;2.33;;;;;;;30.66;61.82;100836.75;5041119;28;65625;-38
2023/10/08 06:09:50;;;;;;;4.30;1.83;;;;;;;30.75;60.84;100842.72;5039801;28;69829;-38
2023/10/08 06:12:29;;;;;;;13.05;1.98;;;;;;;30.78;59.83;100833.34;5040670;28;65535;-40
2023/10/08 06:15:12;;;;;;;9.98;1.85;;;;;;;30.76;59.87;100830.00;5036737;28;70698;-39
2023/10/08 06:18:04;;;;;;;6.15;1.23;;;;;;;30.77;59.70;100821.69;5040139;28;65679;-39
2023/10/08 06:20:36;;;;;;;1.73;1.13;;;;;;;30.76;59.25;100808.34;5039237;28;70578;-38
2023/10/08 06:23:07;;;;;;;1.80;1.00;;;;;;;30.80;58.07;100815.03;5038666;28;65713;-39
2023/10/08 06:25:44;;;;;;;4.82;0.73;;;;;;;30.70;57.67;100789.25;5038202;28;69915;-38
2023/10/08 06:28:21;;;;;;;3.60;0.80;;;;;;;30.82;56.49;100802.09;5039068;28;66560;-39
2023/10/08 06:30:54;;;;;;;1.63;0.77;;;;;;;30.54;56.13;100741.09;5033932;28;70282;-37
2023/10/08 06:33:30;;;;;;;0.85;0.57;;;;;;;30.85;56.48;100780.00;5040203;28;66602;-40
2023/10/08 06:38:40;;;;;;;0.73;0.50;;;;;;;30.87;56.39;100767.03;5040957;28;65839;-38
2023/10/08 06:44:14;;;;;;;1.90;0.60;;;;;;;30.82;54.25;100765.03;5036089;28;65829;-40
2023/10/08 06:46:45;;;;;;;1.38;0.60;;;;;;;30.88;54.99;100757.88;5042726;28;69828;-39
2023/10/08 06:49:18;;;;;;;0.40;0.30;;;;;;;30.84;53.14;100753.94;5044146;28;66189;-38
2023/10/08 06:51:50;;;;;;;0.40;0.40;;;;;;;30.76;53.04;100727.13;5044284;28;70421;-40
2023/10/08 06:54:22;;;;;;;0.73;0.50;;;;;;;30.93;54.48;100739.09;5044630;28;66245;-39
2023/10/08 06:56:53;;;;;;;0.52;0.40;;;;;;;30.88;52.05;100730.78;5045573;28;69751;-39
2023/10/08 06:59:23;;;;;;;4.30;0.47;;;;;;;30.91;51.97;100730.34;5045786;28;66792;-39
2023/10/08 07:01:54;;;;;;;4.65;0.20;;;;;;;30.96;52.74;100732.41;5045190;28;72399;-38
2023/10/08 07:04:25;;;;;;;0.47;0.30;;;;;;;30.92;51.14;100726.56;5044256;28;66460;-40
2023/10/08 07:06:55;;;;;;;0.40;0.30;;;;;;;30.99;52.88;100721.94;5036318;28;71472;-37
2023/10/08 07:12:05;;;;;;;0.32;0.30;;;;;;;31.00;50.51;100706.50;5042353;28;69069;-38
2023/10/08 07:14:36;;;;;;;1.15;0.30;;;;;;;31.03;50.55;100706.88;5041711;28;66735;-40
2023/10/08 07:17:08;;;;;;;4.93;0.32;;;;;;;31.04;51.47;100696.88;5043153;28;69463;-38
2023/10/08 07:19:40;;;;;;;7.30;0.43;;;;;;;31.06;51.59;100690.16;5043195;28;65686;-39
2023/10/08 07:22:23;;;;;;;4.30;0.77;;;;;;;31.06;52.23;100679.31;5041089;28;69092;-39
2023/10/08 07:24:54;;;;;;;8.85;1.30;;;;;;;31.13;53.21;100685.50;5041488;28;65796;-40
2023/10/08 07:27:31;;;;;;;11.80;0.73;;;;;;;31.04;52.70;100651.66;5040283;28;70315;-39
2023/10/08 07:30:10;;;;;;;5.95;0.68;;;;;;;31.20;52.12;100673.75;5040026;28;66617;-38
2023/10/08 07:32:40;;;;;;;1.38;0.65;;;;;;;31.26;51.18;100672.84;5041217;28;69611;-38
2023/10/08 07:37:53;;;;;;;0.47;0.43;;;;;;;31.31;51.37;100676.50;5041237;28;70449;-38
2023/10/08 07:40:30;;;;;;;1.73;0.60;;;;;;;30.75;50.98;100584.66;5041846;28;67690;-39
2023/10/08 07:43:08;;;;;;;0.60;0.40;;;;;;;31.34;50.61;100675.22;5034958;28;69242;-40
2023/10/08 07:45:38;;;;;;;2.65;0.60;;;;;;;31.46;52.29;100683.47;5040194;28;66285;-40
2023/10/08 07:48:09;;;;;;;7.03;0.70;;;;;;;31.34;50.48;100670.66;5042675;28;70399;-39
2023/10/08 07:50:46;;;;;;;0.47;0.40;;;;;;;31.45;50.23;100682.63;5037070;28;65360;-39
2023/10/08 07:53:19;;;;;;;4.93;0.50;;;;;;;31.22;51.18;100639.13;5041403;28;70554;-38
2023/10/08 07:55:51;;;;;;;2.78;1.00;;;;;;;31.64;55.67;100696.13;5042236;28;65498;-41
2023/10/08 07:58:22;;;;;;;1.65;1.33;;;;;;;31.66;58.70;100688.63;5052359;28;70562;-40
2023/10/08 08:00:52;;;;;;;1.70;1.40;;;;;;;31.89;60.46;100704.94;5040827;28;66087;-41
2023/10/08 08:03:24;;;;;;;2.40;1.20;;;;;;;32.02;60.26;100701.25;5041543;28;69327;-41
2023/10/08 08:05:54;;;;;;;;;;;;;;;31.93;62.41;100699.91;5039380;28;65030;-39
2023/10/08 08:08:27;;;;;;;3.55;1.20;;;;;;;32.23;61.26;100694.44;5040917;28;70025;-40
2023/10/08 08:11:05;;;;;;;1.30;1.20;;;;;;;32.08;62.87;100664.22;5047098;28;66208;-40
2023/10/08 08:13:36;;;;;;;1.35;1.25;;;;;;;32.27;62.56;100682.06;5055820;28;71353;-40
2023/10/08 08:16:19;;;;;;;1.42;1.33;;;;;;;32.37;63.24;100682.28;5039644;28;66695;-41
2023/10/08 08:18:56;;;;;;;2.13;1.30;;;;;;;32.54;62.74;100681.63;5037601;28;70041;-39
2023/10/08 08:21:30;;;;;;;2.33;1.20;;;;;;;32.52;62.44;100664.75;5041381;28;66494;-40
2023/10/08 08:24:07;;;;;;;1.67;1.30;;;;;;;32.68;62.84;100691.16;5054851;28;70411;-41
2023/10/08 08:27:00;;;;;;;5.82;1.40;;;;;;;32.62;62.42;100668.50;5045187;28;65315;-41
2023/10/08 08:29:36;;;;;;;1.35;1.20;;;;;;;32.83;63.24;100694.25;5040780;28;70276;-40
2023/10/08 08:32:08;;;;;;;1.80;1.52;;;;;;;32.91;63.18;100696.59;5042483;28;66080;-40
2023/10/08 08:34:43;;;;;;;3.58;1.60;;;;;;;32.94;63.33;100701.53;5042385;28;69658;-41
2023/10/08 08:37:14;;;;;;;1.65;1.50;;;;;;;32.95;63.76;100699.66;5042503;28;65687;-40
2023/10/08 08:39:45;;;;;;;4.53;1.77;;;;;;;33.01;63.74;100695.19;5042506;28;71118;-40
2023/10/08 08:42:23;;;;;;;1.73;1.42;;;;;;;32.98;63.41;100690.19;5041654;28;65365;-40
2023/10/08 08:44:57;;;;;;;1.55;1.45;;;;;;;33.07;63.51;100705.94;5038504;28;70141;-42
2023/10/08 08:47:28;;;;;;;1.60;1.13;;;;;;;33.13;63.36;100706.88;5041336;28;66051;-44
2023/10/08 08:50:08;;;;;;;1.65;1.42;;;;;;;33.15;63.88;100712.88;5042209;28;70513;-40
2023/10/08 08:52:40;;;;;;;1.20;1.10;;;;;;;33.22;63.46;100712.75;5039959;28;65445;-41
2023/10/08 08:55:14;;;;;;;1.30;1.00;;;;;;;33.20;63.82;100721.13;5055600;28;69031;-41
2023/10/08 08:57:50;;;;;;;1.05;0.95;;;;;;;32.89;64.02;100676.97;5036516;28;66237;-42
2023/10/08 09:00:24;;;;;;;1.05;0.95;;;;;;;33.17;64.05;100716.19;5036950;28;70143;-41
2023/10/08 09:02:56;;;;;;;2.10;1.20;;;;;;;33.23;63.57;100723.38;5043272;28;66161;-41
2023/10/08 09:05:33;;;;;;;1.50;1.08;;;;;;;33.27;63.20;100732.72;5040931;28;69873;-39
2023/10/08 09:08:06;;;;;;;1.02;0.88;;;;;;;33.35;63.99;100745.13;5041306;28;66242;-41
2023/10/08 09:10:50;;;;;;;3.65;1.10;;;;;;;32.69;64.53;100633.09;5040577;28;69250;-42
2023/10/08 09:13:23;;;;;;;2.45;2.13;;;;;;;33.38;64.30;100745.44;5029071;28;66947;-41
2023/10/08 09:16:12;;;;;;;4.35;4.05;;;;;;;32.98;65.37;100701.06;5038955;28;70169;-43
2023/10/08 09:18:50;;;;;;;5.63;5.22;;;;;;;33.25;65.43;100744.88;5040986;28;66153;-40
2023/10/08 09:21:22;;;;;;;7.32;6.80;;;;;;;33.32;66.34;100765.44;5042161;28;70250;-41
2023/10/08 09:23:54;;;;;;;7.78;7.07;;;;;;;33.34;65.99;100771.44;5044369;28;65644;-40
2023/10/08 09:26:29;;;;;;;6.63;5.80;;;;;;;32.92;64.94;100695.50;5043778;28;70824;-40
2023/10/08 09:28:59;;;;;;;5.32;4.00;;;;;;;33.38;65.01;100761.75;5041788;28;66378;-40
2023/10/08 09:31:35;;;;;;;3.35;3.03;;;;;;;33.44;64.16;100759.16;5040851;28;70344;-39
2023/10/08 09:34:06;;;;;;;2.80;2.50;;;;;;;33.48;63.99;100754.88;5041487;28;65497;-38
2023/10/08 09:36:36;;;;;;;2.47;2.28;;;;;;;33.43;63.55;100746.59;5034589;28;69615;-40
2023/10/08 09:39:13;;;;;;;2.10;2.00;;;;;;;33.43;63.46;100746.59;5045362;28;65799;-39
2023/10/08 09:41:45;;;;;;;7.78;2.30;;;;;;;33.49;63.47;100753.78;5039449;28;69212;-39
2023/10/08 09:44:18;;;;;;;12.57;2.28;;;;;;;33.46;63.28;100735.25;5040401;28;66474;-42
2023/10/08 09:46:55;;;;;;;3.53;2.20;;;;;;;33.47;63.27;100761.38;5039767;28;70355;-42
2023/10/08 09:49:34;;;;;;;2.70;2.50;;;;;;;33.14;62.98;100700.34;5037513;28;65716;-41
2023/10/08 09:52:06;;;;;;;2.70;2.28;;;;;;;33.38;62.49;100734.56;5051668;28;70167;-40
2023/10/08 09:55:12;;;;;;;2.55;2.33;;;;;;;33.29;63.01;100736.03;5046249;28;66377;-40
2023/10/08 09:57:43;;;;;;;2.53;2.33;;;;;;;33.37;62.89;100743.78;4998398;28;69685;-40
2023/10/08 10:00:18;;;;;;;2.05;1.80;;;;;;;33.39;62.62;100762.59;5045475;28;66287;-41
2023/10/08 10:02:49;;;;;;;1.75;1.65;;;;;;;33.40;63.20;100780.53;5039105;28;70835;-40
2023/10/08 10:05:21;;;;;;;4.93;2.00;;;;;;;33.36;63.25;100793.78;5056701;28;66759;-41
2023/10/08 10:07:55;;;;;;;;;;;;;;;33.13;64.35;100802.00;5039115;28;70665;-39
2023/10/08 10:10:38;;;;;;;7.38;1.55;;;;;;;33.38;63.70;100799.81;5038340;28;65922;-38
2023/10/08 10:13:11;;;;;;;2.88;2.22;;;;;;;33.35;64.14;100794.88;5037447;28;69131;-42
2023/10/08 10:15:44;;;;;;;3.15;1.70;;;;;;;33.43;63.42;100784.66;5038434;28;66176;-40
2023/10/08 10:18:29;;;;;;;2.42;2.10;;;;;;;33.29;64.23;100794.97;5035341;28;69305;-39
2023/10/08 10:21:15;;;;;;;1.65;1.40;;;;;;;33.27;64.34;100803.41;5038794;28;66521;-41
2023/10/08 10:23:50;;;;;;;2.20;1.77;;;;;;;33.33;64.05;100813.31;5036050;28;69131;-41
2023/10/08 10:26:33;;;;;;;2.40;1.88;;;;;;;33.31;64.36;100815.44;5036404;28;65308;-41
2023/10/08 10:29:19;;;;;;;1.83;1.60;;;;;;;33.26;64.44;100828.91;5053810;28;69026;-39
2023/10/08 10:31:54;;;;;;;1.45;1.30;;;;;;;32.96;64.61;100779.28;5044698;28;65702;-41
2023/10/08 10:34:27;;;;;;;2.10;1.40;;;;;;;32.89;65.14;100793.81;5040642;28;69639;-41
2023/10/08 10:37:02;;;;;;;1.60;1.50;;;;;;;32.99;64.51;100805.97;5036881;28;65725;-40
2023/10/08 10:39:34;;;;;;;2.17;1.30;;;;;;;33.28;64.38;100864.84;5038123;28;71250;-41
2023/10/08 10:42:06;;;;;;;2.00;1.70;;;;;;;33.15;65.35;100857.78;5033352;28;64800;-42
2023/10/08 10:44:36;;;;;;;;;;;;;;;32.99;65.86;100871.19;5039902;28;70466;-39
2023/10/08 10:50:39;;;;;;;1.70;1.60;;;;;;;33.20;65.09;100889.66;5037447;28;69898;-41
2023/10/08 10:55:23;;;;;;;2.00;1.83;;;;;;;33.13;65.74;100894.41;5040318;28;69294;-41
2023/10/08 10:58:15;;;;;;;2.45;1.77;;;;;;;33.15;65.64;100898.53;5042015;28;66312;-39
2023/10/08 11:03:16;;;;;;;2.50;1.50;;;;;;;33.02;66.12;100881.63;5041749;28;65457;-39
2023/10/08 11:05:51;;;;;;;2.05;1.85;;;;;;;32.87;66.29;100858.41;5038895;28;69344;-41
2023/10/08 11:08:25;;;;;;;2.13;2.00;;;;;;;33.11;66.04;100912.84;5041571;28;66457;-41
2023/10/08 11:11:17;;;;;;;2.05;1.70;;;;;;;33.11;66.47;100912.84;5033275;28;70656;-39
2023/10/08 11:13:54;;;;;;;2.05;1.70;;;;;;;33.03;66.97;100907.75;5038677;28;66558;-45
2023/10/08 11:16:24;;;;;;;4.15;2.30;;;;;;;33.06;66.49;100920.84;5035861;28;70074;-40
2023/10/08 11:19:01;;;;;;;2.10;1.83;;;;;;;33.01;67.22;100928.88;5041006;28;66740;-39
2023/10/08 11:21:33;;;;;;;2.25;2.15;;;;;;;33.04;66.48;100920.25;5040348;28;70065;-40
2023/10/08 11:24:24;;;;;;;2.53;2.33;;;;;;;33.07;67.02;100939.66;5043255;28;65817;-40
2023/10/08 11:29:46;;;;;;;6.65;2.60;;;;;;;32.96;68.45;100942.31;5042146;28;66285;-39
2023/10/08 11:32:17;;;;;;;2.85;2.55;;;;;;;33.02;68.42;100952.28;5032719;28;70481;-42
2023/10/08 11:34:50;;;;;;;2.53;2.27;;;;;;;32.91;68.03;100946.56;5039813;28;67121;-41
2023/10/08 11:37:35;;;;;;;2.60;2.40;;;;;;;32.96;68.73;100966.75;5039810;28;70532;-38
2023/10/08 11:40:28;;;;;;;2.50;2.30;;;;;;;33.00;68.89;100976.16;5041617;28;65812;-40
2023/10/08 11:43:03;;;;;;;2.67;2.47;;;;;;;32.97;68.86;100968.44;5039433;28;70174;-40
2023/10/08 11:45:39;;;;;;;5.57;3.00;;;;;;;32.97;68.63;100971.16;5041647;28;65752;-39
2023/10/08 11:48:13;;;;;;;3.20;2.90;;;;;;;32.79;68.85;100948.44;5039079;28;69957;-40
2023/10/08 11:50:44;;;;;;;5.65;3.25;;;;;;;32.89;69.52;100964.97;5037657;28;64983;-40
2023/10/08 11:53:14;;;;;;;2.83;2.63;;;;;;;32.87;69.54;100972.53;5037145;28;69286;-42
2023/10/08 11:55:47;;;;;;;2.90;2.70;;;;;;;32.93;68.71;100982.47;5039113;28;65966;-40
2023/10/08 11:58:20;;;;;;;11.25;3.40;;;;;;;32.86;69.84;100975.47;5036512;28;69784;-39
2023/10/08 12:00:52;;;;;;;15.18;4.20;;;;;;;32.85;69.83;100977.38;5039375;28;66269;-40
2023/10/08 12:03:26;;;;;;;26.10;3.47;;;;;;;32.85;69.81;100992.84;5041327;28;70439;-41
2023/10/08 12:05:59;;;;;;;33.88;3.72;;;;;;;32.85;68.97;100998.28;5041235;28;66134;-41
2023/10/08 12:08:30;;;;;;;14.20;3.75;;;;;;;32.77;70.20;100998.63;5040532;28;69407;-41
2023/10/08 12:11:01;;;;;;;29.00;3.08;;;;;;;32.85;69.32;101018.13;5037745;28;65505;-40
2023/10/08 12:13:32;;;;;;;10.02;2.65;;;;;;;32.84;69.03;101018.34;5040419;28;69905;-39
2023/10/08 12:16:06;;;;;;;11.70;2.80;;;;;;;32.71;69.78;101020.19;5039332;28;65709;-39
2023/10/08 12:18:39;;;;;;;12.70;2.80;;;;;;;32.78;70.01;101028.25;5039072;28;70287;-41
2023/10/08 12:21:10;;;;;;;8.10;2.10;;;;;;;32.80;68.76;101018.00;5042068;28;65338;-41
2023/10/08 12:23:49;;;;;;;5.27;2.07;;;;;;;32.72;70.21;101030.00;5043462;28;71092;-40
2023/10/08 12:26:20;;;;;;;9.10;2.22;;;;;;;32.72;70.07;101034.59;5037615;28;66360;-39
2023/10/08 12:28:53;;;;;;;5.38;2.10;;;;;;;32.74;70.17;101037.09;5040051;28;70252;-39
2023/10/08 12:31:24;;;;;;;4.70;2.35;;;;;;;32.74;69.81;101040.66;5041059;28;66522;-41
2023/10/08 12:33:57;;;;;;;2.47;2.28;;;;;;;32.63;70.06;101042.25;5040819;28;70404;-40
2023/10/08 12:36:32;;;;;;;2.33;2.00;;;;;;;32.69;70.34;101056.78;5032904;28;65089;-40
2023/10/08 12:39:14;;;;;;;2.35;2.05;;;;;;;32.65;70.23;101061.00;5044539;28;70244;-40
2023/10/08 12:41:45;;;;;;;;;;;;;;;32.42;71.77;101067.94;5045299;28;65799;-40
2023/10/08 12:44:15;;;;;;;4.13;2.85;;;;;;;32.69;70.83;101078.53;5045097;28;69116;-41
2023/10/08 12:46:48;;;;;;;3.72;3.42;;;;;;;32.66;70.62;101068.13;5044739;28;66441;-40